sensor_id;sensor_type;location;lat;lon;timestamp;P1;durP1;ratioP1;P2;durP2;ratioP2
16063;SDS011;8136;53.172;8.256;2023-02-03T02:44:28;6.00;;;1.90;;
16063;SDS011;8136;53.172;8.256;2023-02-03T02:47:18;6.63;;;1.90;;
16063;SDS011;8136;53.172;8.256;2023-02-03T02:49:52;5.63;;;1.73;;
16063;SDS011;8136;53.172;8.256;2023-02-03T02:52:48;7.93;;;2.00;;
16063;SDS011;8136;53.172;8.256;2023-02-03T02:55:19;4.83;;;1.90;;
16063;SDS011;8136;53.172;8.256;2023-02-03T02:57:53;4.10;;;1.80;;
16063;SDS011;8136;53.172;8.256;2023-02-03T03:00:27;3.70;;;1.57;;
16063;SDS011;8136;53.172;8.256;2023-02-03T03:08:51;4.53;;;2.63;;
16063;SDS011;8136;53.172;8.256;2023-02-03T03:11:35;3.90;;;1.83;;
16063;SDS011;8136;53.172;8.256;2023-02-03T03:14:07;5.67;;;1.70;;
16063;SDS011;8136;53.172;8.256;2023-02-03T03:19:59;6.67;;;1.87;;
16063;SDS011;8136;53.172;8.256;2023-02-03T03:22:51;3.60;;;1.73;;
16063;SDS011;8136;53.172;8.256;2023-02-03T03:25:33;12.57;;;2.67;;
16063;SDS011;8136;53.172;8.256;2023-02-03T03:28:32;4.80;;;1.63;;
16063;SDS011;8136;53.172;8.256;2023-02-03T03:31:03;5.70;;;1.80;;
16063;SDS011;8136;53.172;8.256;2023-02-03T03:33:31;4.03;;;1.70;;
16063;SDS011;8136;53.172;8.256;2023-02-03T03:36:00;5.90;;;1.63;;
16063;SDS011;8136;53.172;8.256;2023-02-03T03:38:34;6.40;;;1.73;;
16063;SDS011;8136;53.172;8.256;2023-02-03T03:41:07;4.40;;;1.70;;
16063;SDS011;8136;53.172;8.256;2023-02-03T03:43:43;4.10;;;1.77;;
16063;SDS011;8136;53.172;8.256;2023-02-03T03:46:13;4.40;;;1.83;;
16063;SDS011;8136;53.172;8.256;2023-02-03T03:48:43;5.67;;;1.93;;
16063;SDS011;8136;53.172;8.256;2023-02-03T03:51:19;4.40;;;2.10;;
16063;SDS011;8136;53.172;8.256;2023-02-03T03:53:50;3.47;;;1.60;;
16063;SDS011;8136;53.172;8.256;2023-02-03T03:56:22;5.57;;;1.90;;
16063;SDS011;8136;53.172;8.256;2023-02-03T03:58:52;7.30;;;1.80;;
16063;SDS011;8136;53.172;8.256;2023-02-03T04:01:19;5.67;;;1.93;;
16063;SDS011;8136;53.172;8.256;2023-02-03T04:03:51;6.43;;;1.83;;
16063;SDS011;8136;53.172;8.256;2023-02-03T04:06:23;5.27;;;2.10;;
16063;SDS011;8136;53.172;8.256;2023-02-03T04:08:49;4.50;;;1.60;;
16063;SDS011;8136;53.172;8.256;2023-02-03T04:11:16;5.83;;;1.80;;
16063;SDS011;8136;53.172;8.256;2023-02-03T04:13:57;6.77;;;1.60;;
16063;SDS011;8136;53.172;8.256;2023-02-03T04:16:24;5.90;;;1.77;;
16063;SDS011;8136;53.172;8.256;2023-02-03T04:18:51;4.17;;;1.93;;
16063;SDS011;8136;53.172;8.256;2023-02-03T04:21:18;6.93;;;2.10;;
16063;SDS011;8136;53.172;8.256;2023-02-03T04:23:46;7.20;;;2.10;;
16063;SDS011;8136;53.172;8.256;2023-02-03T04:26:14;4.70;;;1.53;;
16063;SDS011;8136;53.172;8.256;2023-02-03T04:28:42;6.17;;;1.97;;
16063;SDS011;8136;53.172;8.256;2023-02-03T04:31:09;6.37;;;1.80;;
16063;SDS011;8136;53.172;8.256;2023-02-03T04:33:38;5.50;;;1.53;;
16063;SDS011;8136;53.172;8.256;2023-02-03T04:36:08;6.20;;;1.67;;
16063;SDS011;8136;53.172;8.256;2023-02-03T04:38:35;5.63;;;1.93;;
16063;SDS011;8136;53.172;8.256;2023-02-03T04:41:03;7.10;;;1.90;;
16063;SDS011;8136;53.172;8.256;2023-02-03T04:43:30;5.43;;;2.17;;
16063;SDS011;8136;53.172;8.256;2023-02-03T04:45:58;7.10;;;2.07;;
16063;SDS011;8136;53.172;8.256;2023-02-03T04:48:27;8.00;;;2.27;;
16063;SDS011;8136;53.172;8.256;2023-02-03T04:50:53;6.17;;;2.07;;
16063;SDS011;8136;53.172;8.256;2023-02-03T04:53:20;5.27;;;2.00;;
16063;SDS011;8136;53.172;8.256;2023-02-03T04:55:47;8.03;;;2.33;;
16063;SDS011;8136;53.172;8.256;2023-02-03T04:58:15;6.90;;;2.10;;
16063;SDS011;8136;53.172;8.256;2023-02-03T05:00:42;5.97;;;2.63;;
16063;SDS011;8136;53.172;8.256;2023-02-03T05:03:09;9.10;;;2.23;;
16063;SDS011;8136;53.172;8.256;2023-02-03T05:05:37;8.80;;;2.13;;
16063;SDS011;8136;53.172;8.256;2023-02-03T05:08:04;6.27;;;2.10;;
16063;SDS011;8136;53.172;8.256;2023-02-03T05:10:32;8.10;;;2.23;;
16063;SDS011;8136;53.172;8.256;2023-02-03T05:13:00;6.50;;;1.90;;
16063;SDS011;8136;53.172;8.256;2023-02-03T05:15:28;8.00;;;2.67;;
16063;SDS011;8136;53.172;8.256;2023-02-03T05:17:55;6.73;;;2.43;;
16063;SDS011;8136;53.172;8.256;2023-02-03T05:20:22;7.10;;;2.00;;
16063;SDS011;8136;53.172;8.256;2023-02-03T05:22:48;7.50;;;2.27;;
16063;SDS011;8136;53.172;8.256;2023-02-03T05:25:15;6.77;;;2.20;;
16063;SDS011;8136;53.172;8.256;2023-02-03T05:27:42;9.93;;;2.50;;
16063;SDS011;8136;53.172;8.256;2023-02-03T05:30:09;7.87;;;2.47;;
16063;SDS011;8136;53.172;8.256;2023-02-03T05:32:38;7.73;;;2.17;;
16063;SDS011;8136;53.172;8.256;2023-02-03T05:35:05;5.03;;;2.20;;
16063;SDS011;8136;53.172;8.256;2023-02-03T05:37:33;5.30;;;2.13;;
16063;SDS011;8136;53.172;8.256;2023-02-03T05:40:00;7.63;;;2.80;;
16063;SDS011;8136;53.172;8.256;2023-02-03T05:42:44;7.90;;;2.87;;
16063;SDS011;8136;53.172;8.256;2023-02-03T05:45:12;7.23;;;2.63;;
16063;SDS011;8136;53.172;8.256;2023-02-03T05:47:40;8.80;;;2.73;;
16063;SDS011;8136;53.172;8.256;2023-02-03T05:50:08;7.67;;;2.33;;
16063;SDS011;8136;53.172;8.256;2023-02-03T05:52:35;7.20;;;2.63;;
16063;SDS011;8136;53.172;8.256;2023-02-03T05:55:02;7.87;;;2.97;;
16063;SDS011;8136;53.172;8.256;2023-02-03T05:57:29;8.53;;;2.17;;
16063;SDS011;8136;53.172;8.256;2023-02-03T05:59:58;8.90;;;2.67;;
16063;SDS011;8136;53.172;8.256;2023-02-03T06:02:25;9.03;;;2.70;;
16063;SDS011;8136;53.172;8.256;2023-02-03T06:04:54;6.33;;;2.20;;
16063;SDS011;8136;53.172;8.256;2023-02-03T06:07:30;6.00;;;2.83;;
16063;SDS011;8136;53.172;8.256;2023-02-03T06:09:57;8.50;;;2.43;;
16063;SDS011;8136;53.172;8.256;2023-02-03T06:12:24;10.10;;;2.43;;
16063;SDS011;8136;53.172;8.256;2023-02-03T06:14:58;5.73;;;2.20;;
16063;SDS011;8136;53.172;8.256;2023-02-03T06:17:48;6.63;;;2.10;;
16063;SDS011;8136;53.172;8.256;2023-02-03T06:20:20;7.47;;;2.30;;
16063;SDS011;8136;53.172;8.256;2023-02-03T06:22:47;9.80;;;2.80;;
16063;SDS011;8136;53.172;8.256;2023-02-03T06:25:14;5.27;;;1.90;;
16063;SDS011;8136;53.172;8.256;2023-02-03T06:27:41;7.60;;;2.20;;
16063;SDS011;8136;53.172;8.256;2023-02-03T06:30:11;7.43;;;2.37;;
16063;SDS011;8136;53.172;8.256;2023-02-03T06:32:47;4.63;;;2.60;;
16063;SDS011;8136;53.172;8.256;2023-02-03T06:35:14;9.40;;;2.40;;
16063;SDS011;8136;53.172;8.256;2023-02-03T06:37:46;4.17;;;1.97;;
16063;SDS011;8136;53.172;8.256;2023-02-03T06:40:18;7.27;;;1.93;;
16063;SDS011;8136;53.172;8.256;2023-02-03T06:42:45;6.67;;;2.20;;
16063;SDS011;8136;53.172;8.256;2023-02-03T06:45:13;6.37;;;2.20;;
16063;SDS011;8136;53.172;8.256;2023-02-03T06:47:40;4.53;;;2.30;;
16063;SDS011;8136;53.172;8.256;2023-02-03T06:50:25;9.87;;;2.30;;
16063;SDS011;8136;53.172;8.256;2023-02-03T07:43:48;6.87;;;2.63;;
16063;SDS011;8136;53.172;8.256;2023-02-03T08:05:40;8.13;;;2.20;;
16063;SDS011;8136;53.172;8.256;2023-02-03T08:08:07;10.30;;;2.80;;
16063;SDS011;8136;53.172;8.256;2023-02-03T08:10:34;6.93;;;2.37;;
16063;SDS011;8136;53.172;8.256;2023-02-03T08:13:00;13.63;;;2.63;;
16063;SDS011;8136;53.172;8.256;2023-02-03T08:15:27;9.87;;;2.50;;
16063;SDS011;8136;53.172;8.256;2023-02-03T08:17:54;13.67;;;2.50;;
16063;SDS011;8136;53.172;8.256;2023-02-03T08:20:22;10.47;;;2.80;;
16063;SDS011;8136;53.172;8.256;2023-02-03T08:22:51;8.23;;;2.27;;
16063;SDS011;8136;53.172;8.256;2023-02-03T08:25:18;11.20;;;2.50;;
16063;SDS011;8136;53.172;8.256;2023-02-03T08:27:45;8.13;;;2.53;;
16063;SDS011;8136;53.172;8.256;2023-02-03T08:30:12;10.93;;;3.20;;
16063;SDS011;8136;53.172;8.256;2023-02-03T08:32:40;9.00;;;3.17;;
16063;SDS011;8136;53.172;8.256;2023-02-03T08:35:07;10.97;;;3.00;;
16063;SDS011;8136;53.172;8.256;2023-02-03T08:37:37;8.07;;;2.80;;
16063;SDS011;8136;53.172;8.256;2023-02-03T08:40:04;9.93;;;2.67;;
16063;SDS011;8136;53.172;8.256;2023-02-03T08:42:47;10.00;;;2.83;;
16063;SDS011;8136;53.172;8.256;2023-02-03T08:45:15;13.40;;;2.80;;
16063;SDS011;8136;53.172;8.256;2023-02-03T08:47:43;11.97;;;2.83;;
16063;SDS011;8136;53.172;8.256;2023-02-03T08:50:13;10.73;;;3.07;;
16063;SDS011;8136;53.172;8.256;2023-02-03T08:52:41;11.33;;;3.03;;
16063;SDS011;8136;53.172;8.256;2023-02-03T08:55:08;13.37;;;3.27;;
16063;SDS011;8136;53.172;8.256;2023-02-03T08:57:36;15.13;;;2.83;;
16063;SDS011;8136;53.172;8.256;2023-02-03T09:00:05;15.83;;;3.27;;
16063;SDS011;8136;53.172;8.256;2023-02-03T09:02:33;12.23;;;2.80;;
16063;SDS011;8136;53.172;8.256;2023-02-03T09:05:00;7.87;;;2.43;;
16063;SDS011;8136;53.172;8.256;2023-02-03T09:07:27;9.03;;;2.60;;
16063;SDS011;8136;53.172;8.256;2023-02-03T09:09:55;15.47;;;3.67;;
16063;SDS011;8136;53.172;8.256;2023-02-03T09:12:22;11.40;;;2.77;;
16063;SDS011;8136;53.172;8.256;2023-02-03T09:14:49;8.37;;;2.60;;
16063;SDS011;8136;53.172;8.256;2023-02-03T09:17:16;13.25;;;2.92;;
16063;SDS011;8136;53.172;8.256;2023-02-03T09:19:43;8.80;;;2.23;;
16063;SDS011;8136;53.172;8.256;2023-02-03T09:22:10;14.03;;;2.43;;
16063;SDS011;8136;53.172;8.256;2023-02-03T09:24:37;8.90;;;2.03;;
16063;SDS011;8136;53.172;8.256;2023-02-03T09:27:05;16.77;;;2.93;;
16063;SDS011;8136;53.172;8.256;2023-02-03T09:29:32;14.33;;;3.10;;
16063;SDS011;8136;53.172;8.256;2023-02-03T09:31:59;12.80;;;2.93;;
16063;SDS011;8136;53.172;8.256;2023-02-03T09:34:31;13.20;;;2.77;;
16063;SDS011;8136;53.172;8.256;2023-02-03T09:36:57;11.23;;;2.57;;
16063;SDS011;8136;53.172;8.256;2023-02-03T09:39:24;15.10;;;2.80;;
16063;SDS011;8136;53.172;8.256;2023-02-03T09:42:10;16.47;;;3.70;;
16063;SDS011;8136;53.172;8.256;2023-02-03T09:44:52;10.53;;;3.47;;
16063;SDS011;8136;53.172;8.256;2023-02-03T09:47:26;15.80;;;3.10;;
16063;SDS011;8136;53.172;8.256;2023-02-03T09:49:57;15.97;;;3.43;;
16063;SDS011;8136;53.172;8.256;2023-02-03T09:52:26;18.93;;;4.13;;
16063;SDS011;8136;53.172;8.256;2023-02-03T09:54:57;13.43;;;3.50;;
16063;SDS011;8136;53.172;8.256;2023-02-03T09:57:33;16.20;;;4.13;;
16063;SDS011;8136;53.172;8.256;2023-02-03T10:00:10;20.60;;;4.43;;
16063;SDS011;8136;53.172;8.256;2023-02-03T10:02:48;14.80;;;4.07;;
16063;SDS011;8136;53.172;8.256;2023-02-03T10:05:29;22.10;;;4.53;;
16063;SDS011;8136;53.172;8.256;2023-02-03T10:08:13;21.00;;;4.97;;
16063;SDS011;8136;53.172;8.256;2023-02-03T10:10:50;25.00;;;4.70;;
16063;SDS011;8136;53.172;8.256;2023-02-03T10:13:37;20.43;;;4.93;;
16063;SDS011;8136;53.172;8.256;2023-02-03T10:16:15;16.13;;;3.67;;
16063;SDS011;8136;53.172;8.256;2023-02-03T10:18:55;15.57;;;4.33;;
16063;SDS011;8136;53.172;8.256;2023-02-03T10:21:30;16.67;;;3.93;;
16063;SDS011;8136;53.172;8.256;2023-02-03T10:23:59;17.03;;;3.83;;
16063;SDS011;8136;53.172;8.256;2023-02-03T10:26:28;22.57;;;4.70;;
16063;SDS011;8136;53.172;8.256;2023-02-03T10:28:57;12.83;;;3.63;;
16063;SDS011;8136;53.172;8.256;2023-02-03T10:31:31;16.73;;;3.30;;
16063;SDS011;8136;53.172;8.256;2023-02-03T10:34:03;19.77;;;4.50;;
16063;SDS011;8136;53.172;8.256;2023-02-03T10:36:38;15.37;;;3.47;;
16063;SDS011;8136;53.172;8.256;2023-02-03T10:39:18;25.93;;;4.00;;
16063;SDS011;8136;53.172;8.256;2023-02-03T10:41:50;19.83;;;4.87;;
16063;SDS011;8136;53.172;8.256;2023-02-03T10:44:18;16.87;;;4.67;;
16063;SDS011;8136;53.172;8.256;2023-02-03T10:46:45;15.33;;;4.03;;
16063;SDS011;8136;53.172;8.256;2023-02-03T10:49:12;15.93;;;3.70;;
16063;SDS011;8136;53.172;8.256;2023-02-03T10:51:41;20.73;;;3.67;;
16063;SDS011;8136;53.172;8.256;2023-02-03T10:54:25;18.33;;;3.40;;
16063;SDS011;8136;53.172;8.256;2023-02-03T10:56:56;17.23;;;4.47;;
16063;SDS011;8136;53.172;8.256;2023-02-03T11:02:44;20.73;;;4.72;;
16063;SDS011;8136;53.172;8.256;2023-02-03T11:12:34;16.60;;;4.13;;
16063;SDS011;8136;53.172;8.256;2023-02-03T13:19:21;23.77;;;4.33;;
16063;SDS011;8136;53.172;8.256;2023-02-03T13:22:37;21.43;;;4.33;;
16063;SDS011;8136;53.172;8.256;2023-02-03T13:28:45;16.87;;;3.53;;
16063;SDS011;8136;53.172;8.256;2023-02-03T13:34:44;24.70;;;3.50;;
16063;SDS011;8136;53.172;8.256;2023-02-03T13:37:47;15.50;;;4.00;;
16063;SDS011;8136;53.172;8.256;2023-02-03T13:40:36;14.57;;;3.43;;
16063;SDS011;8136;53.172;8.256;2023-02-03T13:43:54;11.93;;;3.27;;
16063;SDS011;8136;53.172;8.256;2023-02-03T13:46:39;15.10;;;3.07;;
16063;SDS011;8136;53.172;8.256;2023-02-03T13:49:44;18.47;;;3.00;;
16063;SDS011;8136;53.172;8.256;2023-02-03T13:52:54;15.47;;;3.30;;
16063;SDS011;8136;53.172;8.256;2023-02-03T13:55:27;17.40;;;3.53;;
16063;SDS011;8136;53.172;8.256;2023-02-03T13:58:02;14.60;;;2.90;;
16063;SDS011;8136;53.172;8.256;2023-02-03T14:01:25;15.43;;;3.47;;
16063;SDS011;8136;53.172;8.256;2023-02-03T14:03:57;18.80;;;3.50;;
16063;SDS011;8136;53.172;8.256;2023-02-03T14:07:14;14.03;;;3.73;;
16063;SDS011;8136;53.172;8.256;2023-02-03T14:10:15;12.50;;;4.33;;
16063;SDS011;8136;53.172;8.256;2023-02-03T14:28:41;16.80;;;4.07;;
16063;SDS011;8136;53.172;8.256;2023-02-03T14:31:32;15.47;;;3.43;;
16063;SDS011;8136;53.172;8.256;2023-02-03T14:51:59;14.67;;;3.30;;
16063;SDS011;8136;53.172;8.256;2023-02-03T16:17:54;24.03;;;4.53;;
16063;SDS011;8136;53.172;8.256;2023-02-03T16:20:23;25.00;;;4.93;;
16063;SDS011;8136;53.172;8.256;2023-02-03T16:23:02;22.03;;;3.93;;
16063;SDS011;8136;53.172;8.256;2023-02-03T16:25:32;20.57;;;4.03;;
16063;SDS011;8136;53.172;8.256;2023-02-03T16:28:00;27.07;;;4.83;;
16063;SDS011;8136;53.172;8.256;2023-02-03T16:30:53;21.97;;;4.67;;
16063;SDS011;8136;53.172;8.256;2023-02-03T16:33:43;17.13;;;4.80;;
16063;SDS011;8136;53.172;8.256;2023-02-03T16:36:28;25.70;;;4.83;;
16063;SDS011;8136;53.172;8.256;2023-02-03T16:39:12;20.53;;;4.97;;
16063;SDS011;8136;53.172;8.256;2023-02-03T16:41:57;16.73;;;4.03;;
16063;SDS011;8136;53.172;8.256;2023-02-03T16:44:42;20.80;;;3.80;;
16063;SDS011;8136;53.172;8.256;2023-02-03T16:47:27;21.83;;;4.40;;
16063;SDS011;8136;53.172;8.256;2023-02-03T16:50:15;20.57;;;4.17;;
16063;SDS011;8136;53.172;8.256;2023-02-03T16:53:00;18.80;;;4.07;;
16063;SDS011;8136;53.172;8.256;2023-02-03T16:55:27;16.30;;;3.73;;
16063;SDS011;8136;53.172;8.256;2023-02-03T16:57:54;18.17;;;4.30;;
16063;SDS011;8136;53.172;8.256;2023-02-03T17:00:28;17.83;;;4.37;;
16063;SDS011;8136;53.172;8.256;2023-02-03T17:02:55;21.40;;;4.17;;
16063;SDS011;8136;53.172;8.256;2023-02-03T17:05:23;24.93;;;4.37;;
16063;SDS011;8136;53.172;8.256;2023-02-03T17:07:50;16.40;;;3.97;;
16063;SDS011;8136;53.172;8.256;2023-02-03T17:10:16;22.60;;;4.67;;
16063;SDS011;8136;53.172;8.256;2023-02-03T17:12:43;19.43;;;4.37;;
16063;SDS011;8136;53.172;8.256;2023-02-03T17:15:10;15.20;;;4.03;;
16063;SDS011;8136;53.172;8.256;2023-02-03T17:17:37;23.77;;;4.23;;
16063;SDS011;8136;53.172;8.256;2023-02-03T17:20:04;17.20;;;3.90;;
16063;SDS011;8136;53.172;8.256;2023-02-03T17:22:32;12.30;;;3.47;;
16063;SDS011;8136;53.172;8.256;2023-02-03T17:24:59;18.40;;;3.93;;
16063;SDS011;8136;53.172;8.256;2023-02-03T17:27:26;19.53;;;4.53;;
16063;SDS011;8136;53.172;8.256;2023-02-03T17:29:53;19.87;;;4.13;;
16063;SDS011;8136;53.172;8.256;2023-02-03T17:32:20;18.43;;;4.10;;
16063;SDS011;8136;53.172;8.256;2023-02-03T17:34:47;18.33;;;4.83;;
16063;SDS011;8136;53.172;8.256;2023-02-03T17:37:13;23.63;;;4.17;;
16063;SDS011;8136;53.172;8.256;2023-02-03T17:39:42;21.70;;;3.60;;
16063;SDS011;8136;53.172;8.256;2023-02-03T17:42:08;22.47;;;3.70;;
16063;SDS011;8136;53.172;8.256;2023-02-03T17:44:35;26.50;;;4.60;;
16063;SDS011;8136;53.172;8.256;2023-02-03T17:47:02;22.47;;;4.70;;
16063;SDS011;8136;53.172;8.256;2023-02-03T17:49:29;23.43;;;4.63;;
16063;SDS011;8136;53.172;8.256;2023-02-03T17:51:56;23.47;;;5.40;;
16063;SDS011;8136;53.172;8.256;2023-02-03T17:54:23;20.47;;;4.37;;
16063;SDS011;8136;53.172;8.256;2023-02-03T17:56:51;18.97;;;3.87;;
16063;SDS011;8136;53.172;8.256;2023-02-03T17:59:18;23.47;;;4.50;;
16063;SDS011;8136;53.172;8.256;2023-02-03T18:01:45;20.73;;;4.30;;
16063;SDS011;8136;53.172;8.256;2023-02-03T18:04:12;24.47;;;4.70;;
16063;SDS011;8136;53.172;8.256;2023-02-03T18:06:40;20.40;;;6.03;;
16063;SDS011;8136;53.172;8.256;2023-02-03T18:09:08;19.67;;;4.77;;
16063;SDS011;8136;53.172;8.256;2023-02-03T18:11:38;23.60;;;4.93;;
16063;SDS011;8136;53.172;8.256;2023-02-03T18:14:06;18.63;;;3.77;;
16063;SDS011;8136;53.172;8.256;2023-02-03T18:16:34;21.53;;;4.57;;
16063;SDS011;8136;53.172;8.256;2023-02-03T18:19:01;23.37;;;4.93;;
16063;SDS011;8136;53.172;8.256;2023-02-03T18:21:30;18.90;;;3.67;;
16063;SDS011;8136;53.172;8.256;2023-02-03T18:23:58;23.87;;;4.20;;
16063;SDS011;8136;53.172;8.256;2023-02-03T18:26:26;21.80;;;3.73;;
16063;SDS011;8136;53.172;8.256;2023-02-03T18:28:57;20.17;;;3.33;;
16063;SDS011;8136;53.172;8.256;2023-02-03T18:31:25;22.17;;;4.43;;
16063;SDS011;8136;53.172;8.256;2023-02-03T18:33:52;25.97;;;5.00;;
16063;SDS011;8136;53.172;8.256;2023-02-03T18:36:20;23.00;;;4.30;;
16063;SDS011;8136;53.172;8.256;2023-02-03T18:38:47;24.00;;;4.27;;
16063;SDS011;8136;53.172;8.256;2023-02-03T18:41:14;18.57;;;3.37;;
16063;SDS011;8136;53.172;8.256;2023-02-03T18:43:42;19.10;;;4.07;;
16063;SDS011;8136;53.172;8.256;2023-02-03T18:46:12;21.63;;;3.87;;
16063;SDS011;8136;53.172;8.256;2023-02-03T18:48:43;18.70;;;4.33;;
16063;SDS011;8136;53.172;8.256;2023-02-03T18:51:11;20.93;;;3.47;;
16063;SDS011;8136;53.172;8.256;2023-02-03T18:53:39;17.97;;;3.53;;
16063;SDS011;8136;53.172;8.256;2023-02-03T18:56:09;19.57;;;3.60;;
16063;SDS011;8136;53.172;8.256;2023-02-03T18:58:40;21.97;;;4.53;;
16063;SDS011;8136;53.172;8.256;2023-02-03T19:01:07;23.17;;;5.43;;
16063;SDS011;8136;53.172;8.256;2023-02-03T19:03:34;25.73;;;5.00;;
16063;SDS011;8136;53.172;8.256;2023-02-03T19:06:06;22.93;;;3.93;;
16063;SDS011;8136;53.172;8.256;2023-02-03T19:08:34;17.67;;;3.73;;
16063;SDS011;8136;53.172;8.256;2023-02-03T19:11:00;18.27;;;3.93;;
16063;SDS011;8136;53.172;8.256;2023-02-03T19:13:27;20.10;;;4.30;;
16063;SDS011;8136;53.172;8.256;2023-02-03T19:15:55;15.30;;;3.97;;
16063;SDS011;8136;53.172;8.256;2023-02-03T19:18:22;24.73;;;4.30;;
16063;SDS011;8136;53.172;8.256;2023-02-03T19:20:48;23.43;;;4.20;;
16063;SDS011;8136;53.172;8.256;2023-02-03T19:23:17;27.33;;;8.30;;
16063;SDS011;8136;53.172;8.256;2023-02-03T19:25:48;15.63;;;3.77;;
16063;SDS011;8136;53.172;8.256;2023-02-03T19:28:17;20.43;;;5.00;;
16063;SDS011;8136;53.172;8.256;2023-02-03T19:30:44;18.23;;;3.83;;
16063;SDS011;8136;53.172;8.256;2023-02-03T19:33:12;21.77;;;4.20;;
16063;SDS011;8136;53.172;8.256;2023-02-03T19:35:39;21.23;;;3.47;;
16063;SDS011;8136;53.172;8.256;2023-02-03T19:38:07;32.17;;;5.13;;
16063;SDS011;8136;53.172;8.256;2023-02-03T19:40:35;18.77;;;3.77;;
16063;SDS011;8136;53.172;8.256;2023-02-03T19:43:02;19.87;;;4.80;;
16063;SDS011;8136;53.172;8.256;2023-02-03T19:45:29;21.83;;;4.07;;
16063;SDS011;8136;53.172;8.256;2023-02-03T19:47:56;19.83;;;4.17;;
16063;SDS011;8136;53.172;8.256;2023-02-03T19:50:22;21.57;;;4.43;;
16063;SDS011;8136;53.172;8.256;2023-02-03T19:52:49;21.43;;;4.67;;
16063;SDS011;8136;53.172;8.256;2023-02-03T19:55:16;23.57;;;4.93;;
16063;SDS011;8136;53.172;8.256;2023-02-03T19:57:44;21.50;;;4.87;;
16063;SDS011;8136;53.172;8.256;2023-02-03T20:00:11;24.87;;;5.23;;
16063;SDS011;8136;53.172;8.256;2023-02-03T20:02:40;23.83;;;4.30;;
16063;SDS011;8136;53.172;8.256;2023-02-03T20:05:07;20.90;;;5.03;;
16063;SDS011;8136;53.172;8.256;2023-02-03T20:07:34;20.43;;;4.77;;
16063;SDS011;8136;53.172;8.256;2023-02-03T20:10:01;25.93;;;4.87;;
16063;SDS011;8136;53.172;8.256;2023-02-03T20:12:28;19.60;;;4.00;;
16063;SDS011;8136;53.172;8.256;2023-02-03T20:14:57;20.30;;;4.83;;
16063;SDS011;8136;53.172;8.256;2023-02-03T20:17:25;22.70;;;4.80;;
16063;SDS011;8136;53.172;8.256;2023-02-03T20:19:52;25.23;;;4.20;;
16063;SDS011;8136;53.172;8.256;2023-02-03T20:22:19;21.40;;;3.77;;
16063;SDS011;8136;53.172;8.256;2023-02-03T20:24:46;22.63;;;4.30;;
16063;SDS011;8136;53.172;8.256;2023-02-03T20:27:12;24.80;;;8.03;;
16063;SDS011;8136;53.172;8.256;2023-02-03T20:29:41;35.63;;;10.03;;
16063;SDS011;8136;53.172;8.256;2023-02-03T20:32:10;24.93;;;5.83;;
16063;SDS011;8136;53.172;8.256;2023-02-03T20:34:36;18.77;;;4.17;;
16063;SDS011;8136;53.172;8.256;2023-02-03T22:42:23;19.13;;;4.43;;
